CheckWX is a tool to help pilots better visualize weather data.  It is not intended as a substitute for an official pre-flight weather briefing.

01:21:00 UTC

KDSM TAF
Des Moines International Airport
Des Moines, Iowa, USA
KDSM 192332Z 2000/2024 11005KT P6SM FEW100 FM200800 13005KT P6SM VCTS SCT010 BKN035CB FM201300 15006KT P6SM BKN100 FM201600 20006KT P6SM SCT250 FM201900 22008KT P6SM SCT020

Aug-20@
00:00 UTC

Aug-20 @ 00:00 UTC

Aug-20@
08:00 UTC

Aug-20 @ 08:00 UTC

KDSM 192332Z 2000/2024 11005KT P6SM FEW100
Wind
  • 110° at 5 KTS
Cloud Levels
  • Few at 10,000' AGL

Aug-20@
08:00 UTC

Aug-20 @ 08:00 UTC

Aug-20@
13:00 UTC

Aug-20 @ 13:00 UTC

FM200800 13005KT P6SM VCTS SCT010 BKN035CB

From

From Standard forecast or significant change

Wind
  • 130° at 5 KTS
Conditions
Area Thunderstorm
Cloud Levels
  • Scattered at 1,000' AGL
  • Broken at 3,500' AGL

Aug-20@
13:00 UTC

Aug-20 @ 13:00 UTC

Aug-20@
16:00 UTC

Aug-20 @ 16:00 UTC

FM201300 15006KT P6SM BKN100

From

From Standard forecast or significant change

Wind
  • 150° at 6 KTS
Cloud Levels
  • Broken at 10,000' AGL

Aug-20@
16:00 UTC

Aug-20 @ 16:00 UTC

Aug-20@
19:00 UTC

Aug-20 @ 19:00 UTC

FM201600 20006KT P6SM SCT250

From

From Standard forecast or significant change

Wind
  • 200° at 6 KTS
Cloud Levels
  • Scattered at 25,000' AGL

Aug-20@
19:00 UTC

Aug-20 @ 19:00 UTC

Aug-21@
00:00 UTC

Aug-21 @ 00:00 UTC

FM201900 22008KT P6SM SCT020

From

From Standard forecast or significant change

Wind
  • 220° at 8 KTS
Cloud Levels
  • Scattered at 2,000' AGL